Latest METARs, TAFs and NOTAMs for MYNN


---------------------------------------------------------------------------
	(OBSERVATIONS)
MYNN 040600Z 09003KT 9999 FEW016 28/25 A3011=
MYNN 040500Z 13003KT 9999 FEW016 28/24 A3011=
MYNN 040400Z 14004KT 9999 FEW016 SCT220 28/24 A3011=
---------------------------------------------------------------------------
	(TERMINAL AREA FORECAST)
MYNN 040300Z 0406/0506 11010KT 9999 SCT015CB BKN018 BKN035 PROB40
    TEMPO
    0415/0421 4800 TSRA VRB25KT BKN012CB BKN016 BKN035=
---------------------------------------------------------------------------
	(NOTAMS)


MYNN A0068/13 VOR Y RWY 14 FEEDER RTE FM MAJUR TO MUNIE NOT AVBL
    VOR Y RWY 14 FEEDER RTE FM MELON TO MUNIE NOT AVBL. SFC -
    UNL, 19 APR 19:55 2013 UNTIL PERM. CREATED: 19 APR 19:51
    2013

MYNN A0069/13 VOR Y RWY 09 FEEDER RTE FM MAJUR TO MUSSE NOT AVBL
    REMOVE PROCEDURE NOTE 'RADAR REQUIRED' FM APP CHART. SFC
    - UNL, 19 APR 19:55 2013 UNTIL PERM. CREATED: 19 APR 19:52
    2013

MYNN A0070/13 VOR Y RWY 32 FEEDER RTE FM PRUNE TO WELKS NOT AVBL
    REMOVE PROCEDURE NOTE 'RADAR REQUIRED' FM APP CHART. SFC
    - UNL, 19 APR 19:55 2013 UNTIL PERM. CREATED: 19 APR 19:54
    2013

MYNN A0088/15 WEF JULY 01, 2015 ALL VFR AND IFR FLIGHTS OPR IN
    AND THRU NASSAU FIR/CTA ALL FLIGHTS ARRIVING AND DEPARTING
    MYNN ARE REQUIRED TO FILE A PLN WITH NASSAU FIS FLIGHT PLANS
    SUBMITTED DUR FLT SHOULD NORMALLY BE TRANSMITTED ON NASSAU
    RDO FREQ 128.00 MHZ OR 124.200 MHZ PRIOR TO 25 DME FM ZQA
    NON-COMPLIANT ACFT THAT INTEND TO OPR WI NASSAU CTA/FIR WILL
    NOT BE AUTHORIZED OR PERMITTED. 01 JUL 23:59 2015 UNTIL PERM.
    CREATED: 13 MAY 18:03 2015

MYNN A0108/15 INFORMATION LISTED IN AIC 3/2015 WITH THE EXCEPTION
    OF MYNN AND MYGF RNAV APCH PROC IN THE BAHAMAS ARE NOT AUTH
    DUE TO AIRSPACE CLASSIFICATION RESTRICTIONS. 01 JUN 18:00
    2015 UNTIL PERM. CREATED: 01 JUN 16:52 2015

MYNN A0118/15 AIRMEN ARE ADZ CIRCLING MINIMA CAT C OCA/OCH RAISED
    FM 690/674 TO 770/754 DUE OBST (BUILDINGS) LOC BTN COOR N25
    04 10.56 W077 23 45.24 AND N25 04 14.45 W077 23 52.45 ON
    A QDR OF 072.00DEG AT 4.2NM FM MYNN ARP WITH HIGHEST POINT
    374FT AMSL. BUILDINGS ARE SUITED WITH MEDIUM INST R OBST
    LIGHTS INFORMATION TO BE PUBLISHED IN THE AIP. 16 JUN 16:00
    2015 UNTIL 30 SEP 23:59 2015. CREATED: 16 JUN 15:07 2015

MYNN A0127/15 RWY 32 CLSD DUE TO MAINT. 29 JUN 18:00 2015 UNTIL
    06 JUL 21:00 2015. CREATED: 29 JUN 18:08 2015

MYNN A0128/15 CHECKLIST (A) SERIES YEAR=2010 0277 YEAR=2013 0068
    0069 0070 YEAR=2015 0025 0030 0043 0044 0045 0046 0047 0049
    0050 0051 0052 0053 0054 0055 0061 0065 0071 0088 0103 0107
    0108 0109 0118 0127 LATEST PUBLICATIONS AIP AMDT 02/14 EFFECTIVE
    AUGUST 21, 2014 AIC 03/15. 01 JUL 15:30 2015 UNTIL 31 JUL
    23:59 2015. CREATED: 01 JUL 14:27 2015

MYNN A0131/15 RWY 14/32 CLSD RESA CONST AND LINE PAINTING. DAILY
    1100UTC-1500UTC, 03 JUL 11:00 2015 UNTIL 05 JUL 15:00 2015.
    CREATED: 02 JUL 19:43 2015

MYNN A0132/15 RWY 14/32 CLSD RESA CONST AND LINE PAINTING. 06
    JUL 08:00 2015 UNTIL 06 JUL 23:59 2015. CREATED: 03 JUL 20:20
    2015

MYNN B0016/15 CHECKLIST (B) SERIES YEAR=2015 0008 0011 0015 LATEST
    PUBLICATIONS AIP AMDT 02/14 EFFECTIVE AUGUST 21 2014 AIC
    03/15. 01 JUL 15:30 2015 UNTIL 31 JUL 23:59 2015. CREATED:
    01 JUL 14:27 2015

---------------------------------------------------------------------------